createdAt,value
2023-05-05T00:02:17.005Z,99.90
2023-05-05T00:04:44.359Z,99.90
2023-05-05T00:07:11.682Z,99.90
2023-05-05T00:09:39.050Z,99.90
2023-05-05T00:12:06.634Z,99.90
2023-05-05T00:14:34.063Z,99.90
2023-05-05T00:17:01.348Z,99.90
2023-05-05T00:19:28.834Z,99.90
2023-05-05T00:21:56.057Z,99.90
2023-05-05T00:24:23.815Z,99.90
2023-05-05T00:26:51.386Z,99.90
2023-05-05T00:29:18.745Z,99.90
2023-05-05T00:31:46.240Z,99.90
2023-05-05T00:34:13.614Z,99.90
2023-05-05T00:36:41.523Z,99.90
2023-05-05T00:39:09.082Z,99.90
2023-05-05T00:41:36.925Z,99.90
2023-05-05T00:44:04.720Z,99.90
2023-05-05T00:46:34.166Z,99.90
2023-05-05T00:49:01.912Z,99.90
2023-05-05T00:51:33.711Z,99.90
2023-05-05T00:54:01.938Z,99.90
2023-05-05T00:56:29.503Z,99.90
2023-05-05T00:58:57.117Z,99.90
2023-05-05T01:01:24.749Z,99.90
2023-05-05T01:03:53.128Z,99.90
2023-05-05T01:06:33.925Z,99.90
2023-05-05T01:09:11.155Z,99.90
2023-05-05T01:11:53.906Z,99.90
2023-05-05T01:14:32.539Z,99.90
2023-05-05T01:17:04.689Z,99.90
2023-05-05T01:19:44.666Z,99.90
2023-05-05T01:22:15.265Z,99.90
2023-05-05T01:25:26.371Z,99.90
2023-05-05T01:28:00.183Z,99.90
2023-05-05T01:30:49.545Z,99.90
2023-05-05T01:33:23.426Z,99.90
2023-05-05T01:35:56.918Z,99.90
2023-05-05T01:38:34.072Z,99.90
2023-05-05T01:41:24.400Z,99.90
2023-05-05T01:43:56.539Z,99.90
2023-05-05T01:46:25.816Z,99.90
2023-05-05T01:48:56.267Z,99.90
2023-05-05T01:51:27.331Z,99.90
2023-05-05T01:53:58.132Z,99.90
2023-05-05T01:56:26.985Z,99.90
2023-05-05T01:58:56.030Z,99.90
2023-05-05T02:01:26.706Z,99.90
2023-05-05T02:03:57.400Z,99.90
2023-05-05T02:06:26.959Z,99.90
2023-05-05T02:08:56.116Z,99.90
2023-05-05T02:11:24.360Z,99.90
2023-05-05T02:13:52.109Z,99.90
2023-05-05T02:16:21.788Z,99.90
2023-05-05T02:18:50.060Z,99.90
2023-05-05T02:21:21.100Z,99.90
2023-05-05T02:23:55.061Z,99.90
2023-05-05T02:26:24.674Z,99.90
2023-05-05T02:29:07.533Z,99.90
2023-05-05T02:31:47.643Z,99.90
2023-05-05T02:34:25.639Z,99.90
2023-05-05T02:36:57.856Z,99.90
2023-05-05T02:39:43.801Z,99.90
2023-05-05T02:42:18.550Z,99.90
2023-05-05T02:44:46.502Z,99.90
2023-05-05T02:47:14.565Z,99.90
2023-05-05T02:49:43.105Z,99.90
2023-05-05T02:52:10.511Z,99.90
2023-05-05T02:54:39.980Z,99.90
2023-05-05T02:57:19.194Z,99.90
2023-05-05T03:00:13.946Z,99.90
2023-05-05T03:02:55.524Z,99.90
2023-05-05T03:05:25.332Z,99.90
2023-05-05T03:08:03.535Z,99.90
2023-05-05T03:10:41.846Z,99.90
2023-05-05T03:13:11.944Z,99.90
2023-05-05T03:15:49.396Z,99.90
2023-05-05T03:18:22.620Z,99.90
2023-05-05T03:20:57.046Z,99.90
2023-05-05T03:23:24.568Z,99.90
2023-05-05T03:25:57.038Z,99.90
2023-05-05T03:28:34.281Z,99.90
2023-05-05T03:31:07.639Z,99.90
2023-05-05T03:33:37.784Z,99.90
2023-05-05T03:36:05.463Z,99.90
2023-05-05T03:38:33.405Z,99.90
2023-05-05T03:41:03.899Z,99.90
2023-05-05T03:43:31.987Z,99.90
2023-05-05T03:45:59.466Z,99.90
2023-05-05T03:48:27.446Z,99.90
2023-05-05T03:50:55.160Z,99.90
2023-05-05T03:53:24.384Z,99.90
2023-05-05T03:56:15.338Z,99.90
2023-05-05T03:58:42.697Z,99.90
2023-05-05T04:01:10.096Z,99.90
2023-05-05T04:03:37.637Z,99.90
2023-05-05T04:06:06.081Z,99.90
2023-05-05T04:08:33.955Z,99.90
2023-05-05T04:11:04.286Z,99.90
2023-05-05T04:13:33.621Z,99.90
2023-05-05T04:16:01.097Z,99.90
2023-05-05T04:18:53.939Z,99.90
2023-05-05T04:21:21.058Z,99.90
2023-05-05T04:24:13.762Z,99.90
2023-05-05T04:26:41.654Z,99.90
2023-05-05T04:29:10.188Z,99.90
2023-05-05T04:31:37.755Z,99.90
2023-05-05T04:34:05.219Z,99.90
2023-05-05T04:36:35.179Z,99.90
2023-05-05T04:39:02.562Z,99.90
2023-05-05T04:41:36.046Z,99.90
2023-05-05T04:44:03.546Z,99.90
2023-05-05T04:46:31.062Z,99.90
2023-05-05T04:48:59.540Z,99.90
2023-05-05T04:51:27.773Z,99.90
2023-05-05T04:53:55.973Z,99.90
2023-05-05T04:56:23.333Z,99.90
2023-05-05T04:58:50.833Z,99.90
2023-05-05T05:01:43.065Z,99.90
2023-05-05T05:04:13.924Z,99.90
2023-05-05T05:06:41.157Z,99.90
2023-05-05T05:09:08.541Z,99.90
2023-05-05T05:11:35.918Z,99.90
2023-05-05T05:14:03.139Z,99.90
2023-05-05T05:16:30.710Z,99.90
2023-05-05T05:19:01.813Z,99.90
2023-05-05T05:21:33.068Z,99.90
2023-05-05T05:24:00.561Z,99.90
2023-05-05T05:26:28.146Z,99.90
2023-05-05T05:28:55.821Z,99.90
2023-05-05T05:31:23.332Z,99.90
2023-05-05T05:33:51.199Z,99.90
2023-05-05T05:36:18.827Z,99.90
2023-05-05T05:38:46.347Z,99.90
2023-05-05T05:41:13.869Z,99.90
2023-05-05T05:43:41.742Z,99.90
2023-05-05T05:46:21.322Z,99.90
2023-05-05T05:48:48.656Z,99.90
2023-05-05T05:51:15.914Z,99.90
2023-05-05T05:53:43.486Z,99.90
2023-05-05T05:56:16.891Z,99.90
2023-05-05T05:58:45.315Z,99.90
2023-05-05T06:01:22.115Z,99.90
2023-05-05T06:03:49.693Z,99.90
2023-05-05T06:06:17.969Z,99.90
2023-05-05T06:08:45.200Z,99.90
2023-05-05T06:11:31.790Z,99.90
2023-05-05T06:14:00.294Z,99.90
2023-05-05T06:16:27.748Z,99.90
2023-05-05T06:18:55.640Z,99.90
2023-05-05T06:21:22.821Z,99.90
2023-05-05T06:23:50.098Z,99.90
2023-05-05T06:26:17.494Z,99.90
2023-05-05T06:28:44.954Z,99.90
2023-05-05T06:31:13.106Z,99.90
2023-05-05T06:33:40.388Z,99.90
2023-05-05T06:36:07.793Z,99.90
2023-05-05T06:38:35.228Z,99.90
2023-05-05T06:41:02.621Z,99.90
2023-05-05T06:43:29.903Z,99.90
2023-05-05T06:46:02.446Z,99.90
2023-05-05T06:48:29.579Z,99.90
2023-05-05T06:50:57.385Z,99.90
2023-05-05T06:53:24.596Z,99.90
2023-05-05T06:56:03.039Z,99.90
2023-05-05T06:58:30.193Z,99.90
2023-05-05T07:00:57.732Z,99.90
2023-05-05T07:03:25.387Z,99.90
2023-05-05T07:05:53.979Z,99.90
2023-05-05T07:08:21.123Z,99.90
2023-05-05T07:10:48.295Z,99.90
2023-05-05T07:13:18.517Z,99.90
2023-05-05T07:15:46.767Z,99.90
2023-05-05T07:18:14.808Z,99.90
2023-05-05T07:20:42.305Z,99.90
2023-05-05T07:23:09.865Z,99.90
2023-05-05T07:25:38.506Z,99.90
2023-05-05T07:28:05.927Z,99.90
2023-05-05T07:30:33.220Z,99.90
2023-05-05T07:33:03.323Z,99.90
2023-05-05T07:35:30.599Z,99.90
2023-05-05T07:37:57.848Z,99.90
2023-05-05T07:40:25.117Z,99.90
2023-05-05T07:42:57.791Z,99.90
2023-05-05T07:45:24.949Z,99.90
2023-05-05T07:47:52.162Z,99.90
2023-05-05T07:50:19.339Z,99.90
2023-05-05T07:52:51.837Z,99.90
2023-05-05T07:55:26.449Z,99.90
2023-05-05T07:57:53.662Z,99.90
2023-05-05T08:00:21.808Z,99.90
2023-05-05T08:03:01.436Z,99.90
2023-05-05T08:05:28.946Z,99.90
2023-05-05T08:08:34.750Z,99.90
2023-05-05T08:11:02.109Z,99.90
2023-05-05T08:13:30.445Z,99.90
2023-05-05T08:15:57.582Z,99.90
2023-05-05T08:18:24.863Z,99.90
2023-05-05T08:20:52.995Z,99.90
2023-05-05T08:23:20.293Z,99.90
2023-05-05T08:26:38.655Z,99.90
2023-05-05T08:29:06.277Z,99.90
2023-05-05T08:31:41.613Z,99.90
2023-05-05T08:34:31.773Z,99.90
2023-05-05T08:36:58.656Z,99.90
2023-05-05T08:39:25.490Z,99.90
2023-05-05T08:41:52.332Z,99.90
2023-05-05T08:44:19.188Z,99.90
2023-05-05T08:46:46.455Z,99.90
2023-05-05T08:49:16.400Z,99.90
2023-05-05T08:51:44.449Z,99.90
2023-05-05T08:54:19.084Z,99.90
2023-05-05T08:56:49.608Z,99.90
2023-05-05T08:59:17.587Z,99.90
2023-05-05T09:01:45.037Z,99.90
2023-05-05T09:04:11.953Z,99.90
2023-05-05T09:06:39.061Z,99.90
2023-05-05T09:09:06.920Z,99.90
2023-05-05T09:11:35.178Z,99.90
2023-05-05T09:14:02.013Z,99.90
2023-05-05T09:16:28.941Z,99.90
2023-05-05T09:19:05.990Z,99.90
2023-05-05T09:21:33.073Z,99.90
2023-05-05T09:24:13.106Z,99.90
2023-05-05T09:26:47.969Z,99.90
2023-05-05T09:29:19.540Z,99.90
2023-05-05T09:32:05.253Z,99.90
2023-05-05T09:34:35.196Z,99.70
2023-05-05T09:37:02.255Z,99.50
2023-05-05T09:39:29.127Z,99.90
2023-05-05T09:41:56.036Z,99.90
2023-05-05T09:44:37.054Z,99.10
2023-05-05T09:47:09.418Z,99.50
2023-05-05T09:49:39.253Z,99.90
2023-05-05T09:52:16.585Z,99.50
2023-05-05T09:54:44.464Z,99.90
2023-05-05T09:57:29.114Z,98.80
2023-05-05T10:00:04.281Z,99.80
2023-05-05T10:02:34.985Z,99.70
2023-05-05T10:05:18.716Z,99.80
2023-05-05T10:07:47.508Z,97.80
2023-05-05T10:10:16.561Z,98.70
2023-05-05T10:12:45.934Z,98.60
2023-05-05T10:15:15.704Z,97.80
2023-05-05T10:18:05.953Z,98.10
2023-05-05T10:20:38.642Z,97.70
2023-05-05T10:23:08.229Z,98.60
2023-05-05T10:25:45.662Z,97.60
2023-05-05T10:28:22.359Z,96.30
2023-05-05T10:30:52.787Z,97.20
2023-05-05T10:33:41.548Z,97.40
2023-05-05T10:36:08.684Z,95.80
2023-05-05T10:38:37.206Z,95.70
2023-05-05T10:41:04.535Z,96.40
2023-05-05T10:43:32.172Z,95.40
2023-05-05T10:45:59.804Z,94.70
2023-05-05T10:49:00.600Z,95.10
2023-05-05T10:51:46.610Z,94.50
2023-05-05T10:54:32.159Z,94.70
2023-05-05T10:57:04.912Z,94.80
2023-05-05T10:59:38.345Z,95.20
2023-05-05T11:02:28.307Z,93.90
2023-05-05T11:05:18.128Z,93.90
2023-05-05T11:07:46.509Z,94.00
2023-05-05T11:10:14.958Z,93.90
2023-05-05T11:12:53.960Z,92.70
2023-05-05T11:15:29.853Z,93.90
2023-05-05T11:18:03.140Z,93.60
2023-05-05T11:20:39.530Z,93.40
2023-05-05T11:23:06.612Z,92.30
2023-05-05T11:25:37.231Z,92.90
2023-05-05T11:28:18.057Z,92.30
2023-05-05T11:31:05.154Z,92.70
2023-05-05T11:33:33.673Z,91.60
2023-05-05T11:36:05.027Z,91.80
2023-05-05T11:38:39.425Z,91.90
2023-05-05T11:41:30.579Z,92.80
2023-05-05T11:44:09.876Z,93.30
2023-05-05T11:46:37.274Z,91.70
2023-05-05T11:49:04.235Z,91.40
2023-05-05T11:51:32.088Z,91.40
2023-05-05T11:53:59.323Z,91.20
2023-05-05T11:56:26.310Z,91.50
2023-05-05T11:59:07.875Z,91.30
2023-05-05T12:01:35.416Z,92.20
2023-05-05T12:04:02.471Z,92.30
2023-05-05T12:06:39.545Z,91.30
2023-05-05T12:09:20.162Z,91.00
2023-05-05T12:11:55.130Z,90.90
2023-05-05T12:14:23.356Z,91.30
2023-05-05T12:17:07.951Z,91.10
2023-05-05T12:19:53.685Z,91.00
2023-05-05T12:22:24.604Z,90.30
2023-05-05T12:25:03.264Z,90.10
2023-05-05T12:27:30.444Z,91.00
2023-05-05T12:30:20.823Z,90.80
2023-05-05T12:32:47.928Z,90.40
2023-05-05T12:35:16.169Z,90.60
2023-05-05T12:37:43.679Z,89.50
2023-05-05T12:40:46.144Z,90.10
2023-05-05T12:43:52.971Z,90.20
2023-05-05T12:46:20.188Z,88.60
2023-05-05T12:49:51.015Z,89.00
2023-05-05T12:52:18.627Z,88.10
2023-05-05T12:55:37.268Z,89.00
2023-05-05T12:58:04.674Z,87.90
2023-05-05T13:00:32.414Z,89.10
2023-05-05T13:02:59.759Z,86.90
2023-05-05T13:05:36.249Z,88.50
2023-05-05T13:08:03.451Z,87.50
2023-05-05T13:10:31.464Z,86.80
2023-05-05T13:12:58.814Z,85.80
2023-05-05T13:15:27.435Z,86.00
2023-05-05T13:18:01.603Z,86.20
2023-05-05T13:20:29.155Z,86.70
2023-05-05T13:22:56.317Z,85.80
2023-05-05T13:25:25.976Z,87.00
2023-05-05T13:27:53.824Z,86.00
2023-05-05T13:30:21.293Z,85.80
2023-05-05T13:32:48.512Z,85.30
2023-05-05T13:35:16.531Z,84.70
2023-05-05T13:37:44.538Z,84.80
2023-05-05T13:40:13.443Z,85.00
2023-05-05T13:42:40.632Z,85.20
2023-05-05T13:45:08.408Z,86.30
2023-05-05T13:47:35.924Z,83.90
2023-05-05T13:50:03.063Z,83.90
2023-05-05T13:52:31.790Z,86.10
2023-05-05T13:55:00.820Z,84.20
2023-05-05T13:57:28.346Z,85.10
2023-05-05T13:59:55.556Z,84.20
2023-05-05T14:02:22.918Z,84.30
2023-05-05T14:04:50.463Z,83.60
2023-05-05T14:07:23.944Z,83.90
2023-05-05T14:09:51.122Z,84.30
2023-05-05T14:12:18.928Z,84.60
2023-05-05T14:14:46.619Z,84.80
2023-05-05T14:17:13.740Z,83.40
2023-05-05T14:19:40.913Z,82.10
2023-05-05T14:22:08.032Z,82.30
2023-05-05T14:24:35.250Z,83.50
2023-05-05T14:27:04.468Z,84.20
2023-05-05T14:29:31.590Z,83.50
2023-05-05T14:31:58.808Z,82.60
2023-05-05T14:34:26.032Z,82.60
2023-05-05T14:36:53.218Z,81.70
2023-05-05T14:39:20.449Z,81.40
2023-05-05T14:41:47.684Z,81.10
2023-05-05T14:44:14.793Z,80.90
2023-05-05T14:46:43.561Z,82.50
2023-05-05T14:49:12.646Z,83.70
2023-05-05T14:51:39.872Z,83.60
2023-05-05T14:54:14.233Z,81.20
2023-05-05T14:56:47.868Z,83.40
2023-05-05T14:59:15.246Z,81.70
2023-05-05T15:01:42.445Z,81.80
2023-05-05T15:04:17.753Z,81.50
2023-05-05T15:06:44.880Z,81.60
2023-05-05T15:09:13.390Z,82.10
2023-05-05T15:11:45.073Z,81.80
2023-05-05T15:14:12.601Z,81.80
2023-05-05T15:16:39.946Z,81.70
2023-05-05T15:19:07.357Z,81.00
2023-05-05T15:21:34.618Z,81.80
2023-05-05T15:24:01.896Z,82.80
2023-05-05T15:26:29.024Z,81.70
2023-05-05T15:28:56.363Z,81.50
2023-05-05T15:31:23.508Z,82.50
2023-05-05T15:33:51.230Z,82.70
2023-05-05T15:36:22.761Z,82.00
2023-05-05T15:38:49.908Z,81.20
2023-05-05T15:41:17.215Z,82.50
2023-05-05T15:43:47.681Z,80.70
2023-05-05T15:46:15.106Z,81.40
2023-05-05T15:48:42.539Z,81.10
2023-05-05T15:51:12.426Z,81.30
2023-05-05T15:53:39.681Z,81.40
2023-05-05T15:56:06.885Z,80.40
2023-05-05T15:58:34.154Z,81.80
2023-05-05T16:01:01.234Z,81.00
2023-05-05T16:03:28.968Z,80.70
2023-05-05T16:05:56.237Z,81.80
2023-05-05T16:08:23.544Z,82.00
2023-05-05T16:10:50.749Z,82.40
2023-05-05T16:13:18.491Z,81.60
2023-05-05T16:15:46.379Z,82.40
2023-05-05T16:18:13.592Z,82.60
2023-05-05T16:20:41.311Z,82.40
2023-05-05T16:23:16.157Z,82.30
2023-05-05T16:25:43.259Z,81.90
2023-05-05T16:28:10.454Z,82.30
2023-05-05T16:30:39.865Z,83.10
2023-05-05T16:33:07.169Z,83.10
2023-05-05T16:35:34.495Z,83.70
2023-05-05T16:38:01.645Z,84.10
2023-05-05T16:40:38.372Z,83.60
2023-05-05T16:43:06.365Z,84.30
2023-05-05T16:45:36.714Z,84.20
2023-05-05T16:48:29.089Z,84.50
2023-05-05T16:50:57.739Z,85.00
2023-05-05T16:53:25.830Z,85.00
2023-05-05T16:55:54.198Z,84.90
2023-05-05T16:58:22.919Z,85.40
2023-05-05T17:00:51.204Z,84.90
2023-05-05T17:03:20.393Z,85.40
2023-05-05T17:05:50.167Z,85.20
2023-05-05T17:08:17.572Z,85.20
2023-05-05T17:10:46.317Z,85.60
2023-05-05T17:13:14.648Z,85.20
2023-05-05T17:15:43.632Z,85.90
2023-05-05T17:18:10.854Z,85.20
2023-05-05T17:20:38.102Z,85.40
2023-05-05T17:23:05.296Z,85.70
2023-05-05T17:25:32.560Z,85.70
2023-05-05T17:27:59.623Z,86.00
2023-05-05T17:30:27.088Z,86.20
2023-05-05T17:32:54.519Z,86.40
2023-05-05T17:35:21.885Z,86.60
2023-05-05T17:37:49.298Z,87.00
2023-05-05T17:40:16.388Z,87.20
2023-05-05T17:42:43.779Z,87.50
2023-05-05T17:45:12.211Z,87.80
2023-05-05T17:47:42.923Z,87.90
2023-05-05T17:50:11.273Z,88.50
2023-05-05T17:52:44.728Z,89.10
2023-05-05T17:55:12.713Z,88.90
2023-05-05T17:57:40.293Z,89.20
2023-05-05T18:00:09.232Z,89.90
2023-05-05T18:02:44.301Z,90.00
2023-05-05T18:05:12.003Z,91.40
2023-05-05T18:07:39.789Z,91.40
2023-05-05T18:10:08.573Z,91.80
2023-05-05T18:12:36.319Z,91.90
2023-05-05T18:15:05.850Z,91.90
2023-05-05T18:17:33.346Z,91.70
2023-05-05T18:20:07.132Z,92.20
2023-05-05T18:22:34.982Z,92.80
2023-05-05T18:25:02.905Z,93.00
2023-05-05T18:27:32.892Z,93.00
2023-05-05T18:30:01.247Z,93.20
2023-05-05T18:32:29.013Z,93.80
2023-05-05T18:34:57.172Z,94.00
2023-05-05T18:37:25.553Z,93.60
2023-05-05T18:39:53.518Z,94.30
2023-05-05T18:42:21.769Z,95.20
2023-05-05T18:44:49.819Z,94.50
2023-05-05T18:47:18.147Z,94.40
2023-05-05T18:49:46.434Z,94.30
2023-05-05T18:52:14.557Z,94.40
2023-05-05T18:54:42.975Z,94.50
2023-05-05T18:57:11.417Z,95.40
2023-05-05T18:59:39.250Z,95.40
2023-05-05T19:02:08.736Z,96.00
2023-05-05T19:04:38.752Z,95.90
2023-05-05T19:07:07.431Z,95.70
2023-05-05T19:09:38.432Z,96.20
2023-05-05T19:12:07.137Z,96.80
2023-05-05T19:14:35.330Z,96.90
2023-05-05T19:17:03.365Z,97.80
2023-05-05T19:19:31.722Z,97.50
2023-05-05T19:22:02.099Z,97.50
2023-05-05T19:24:31.731Z,97.60
2023-05-05T19:26:59.986Z,97.60
2023-05-05T19:29:28.100Z,97.80
2023-05-05T19:31:56.380Z,98.30
2023-05-05T19:34:24.702Z,98.50
2023-05-05T19:36:52.754Z,98.40
2023-05-05T19:39:21.205Z,98.60
2023-05-05T19:41:49.834Z,98.60
2023-05-05T19:48:44.409Z,99.40
2023-05-05T19:51:14.941Z,99.10
2023-05-05T19:53:43.577Z,99.10
2023-05-05T19:56:12.299Z,99.30
2023-05-05T19:59:01.264Z,99.90
2023-05-05T20:01:36.012Z,99.90
2023-05-05T20:04:04.589Z,99.90
2023-05-05T20:06:33.376Z,99.90
2023-05-05T20:09:06.136Z,99.90
2023-05-05T20:11:34.726Z,99.90
2023-05-05T20:14:02.996Z,99.90
2023-05-05T20:16:31.039Z,99.90
2023-05-05T20:18:59.346Z,99.90
2023-05-05T20:21:27.879Z,99.90
2023-05-05T20:23:56.274Z,99.90
2023-05-05T20:26:25.294Z,99.90
2023-05-05T20:28:53.466Z,99.90
2023-05-05T20:31:21.360Z,99.90
2023-05-05T20:33:49.434Z,99.90
2023-05-05T20:36:17.821Z,99.90
2023-05-05T20:38:46.438Z,99.90
2023-05-05T20:41:13.700Z,99.90
2023-05-05T20:43:42.362Z,99.90
2023-05-05T20:46:13.354Z,99.90
2023-05-05T20:48:42.887Z,99.90
2023-05-05T20:51:10.957Z,99.90
2023-05-05T20:53:38.266Z,99.90
2023-05-05T20:56:08.657Z,99.90
2023-05-05T20:58:36.400Z,99.90
2023-05-05T21:01:03.835Z,99.90
2023-05-05T21:03:31.034Z,99.90
2023-05-05T21:05:58.506Z,99.90
2023-05-05T21:08:25.789Z,99.90
2023-05-05T21:10:53.183Z,99.90
2023-05-05T21:13:20.431Z,99.90
2023-05-05T21:15:50.553Z,99.90
2023-05-05T21:18:17.738Z,99.90
2023-05-05T21:20:45.097Z,99.90
2023-05-05T21:23:12.153Z,99.90
2023-05-05T21:25:39.377Z,99.90
2023-05-05T21:28:06.647Z,99.90
2023-05-05T21:30:33.972Z,99.90
2023-05-05T21:33:01.219Z,99.90
2023-05-05T21:35:28.655Z,99.90
2023-05-05T21:37:55.881Z,99.90
2023-05-05T21:40:23.209Z,99.90
2023-05-05T21:42:50.405Z,99.90
2023-05-05T21:45:17.788Z,99.90
2023-05-05T21:47:44.963Z,99.90
2023-05-05T21:50:12.776Z,99.90
2023-05-05T21:52:40.039Z,99.90
2023-05-05T21:55:07.854Z,99.90
2023-05-05T22:00:42.609Z,99.90
2023-05-05T22:03:09.902Z,99.90
2023-05-05T22:05:37.373Z,99.90
2023-05-05T22:08:04.743Z,99.90
2023-05-05T22:10:33.157Z,99.90
2023-05-05T22:13:03.250Z,99.90
2023-05-05T22:15:38.877Z,99.90
2023-05-05T22:18:13.070Z,99.90
2023-05-05T22:20:40.698Z,99.90
2023-05-05T22:23:08.095Z,99.90
2023-05-05T22:25:35.764Z,99.90
2023-05-05T22:28:03.027Z,99.90
2023-05-05T22:30:30.306Z,99.90
2023-05-05T22:32:57.617Z,99.90
2023-05-05T22:35:25.162Z,99.90
2023-05-05T22:37:52.381Z,99.90
2023-05-05T22:40:19.803Z,99.90
2023-05-05T22:42:47.238Z,99.90
2023-05-05T22:45:14.591Z,99.90
2023-05-05T22:47:42.012Z,99.90
2023-05-05T22:50:09.812Z,99.90
2023-05-05T22:52:37.155Z,99.90
2023-05-05T22:55:04.619Z,99.90
2023-05-05T22:57:31.904Z,99.90
2023-05-05T22:59:59.111Z,99.90
2023-05-05T23:02:27.422Z,99.90
2023-05-05T23:05:19.695Z,99.90
2023-05-05T23:07:46.953Z,99.90
2023-05-05T23:10:14.193Z,99.90
2023-05-05T23:12:41.300Z,99.90
2023-05-05T23:15:10.054Z,99.90
2023-05-05T23:17:37.803Z,99.90
2023-05-05T23:20:06.162Z,99.90
2023-05-05T23:22:45.923Z,99.90
2023-05-05T23:25:13.322Z,99.90
2023-05-05T23:27:41.299Z,99.90
2023-05-05T23:30:33.725Z,99.90
2023-05-05T23:33:01.281Z,99.90
2023-05-05T23:35:28.990Z,99.90
2023-05-05T23:37:56.154Z,99.90
2023-05-05T23:40:23.637Z,99.90
2023-05-05T23:42:50.772Z,99.90
2023-05-05T23:45:19.334Z,99.90
2023-05-05T23:48:14.785Z,99.90
2023-05-05T23:50:42.569Z,99.90
2023-05-05T23:53:10.328Z,99.90
2023-05-05T23:55:37.631Z,99.90
2023-05-05T23:58:04.729Z,99.90
